| time (UTC) | temp C | wind direction | speed KPH | gust KPH | rain 1hr cm | rain 24hr cm | rain mn cm | humidity % | barometer mb |
| 20260510140034 | 12 | 24 | 6.4 | 24.1 | 0.00 | 0.00 | 0.00 | 69 | 1017.8 |
| 20260510135025 | 12 | 22 | 9.7 | 24.1 | 0.00 | 0.00 | 0.00 | 68 | 1017.8 |
| 20260510134026 | 12 | 15 | 4.8 | 19.3 | 0.00 | 0.00 | 0.00 | 68 | 1017.7 |
| 20260510133036 | 12 | 57 | 3.2 | 19.3 | 0.00 | 0.00 | 0.00 | 69 | 1017.9 |
| 20260510132032 | 12 | 34 | 3.2 | 11.3 | 0.00 | 0.00 | 0.00 | 69 | 1017.9 |
| 20260510131027 | 12 | 30 | 3.2 | 16.1 | 0.00 | 0.00 | 0.00 | 69 | 1017.9 |
| 20260510130025 | 13 | 16 | 4.8 | 24.1 | 0.00 | 0.00 | 0.00 | 68 | 1017.9 |
| 20260510125036 | 13 | 26 | 4.8 | 19.3 | 0.00 | 0.00 | 0.00 | 68 | 1018.2 |
| 20260510124112 | 13 | 26 | 4.8 | 16.1 | 0.00 | 0.00 | 0.00 | 68 | 1018.3 |
| 20260510123024 | 13 | 31 | 3.2 | 16.1 | 0.00 | 0.00 | 0.00 | 67 | 1018.3 |
| 20260510122036 | 12 | 28 | 6.4 | 19.3 | 0.00 | 0.00 | 0.00 | 67 | 1018.2 |
| 20260510121032 | 12 | 42 | 3.2 | 19.3 | 0.00 | 0.00 | 0.00 | 68 | 1018.4 |
| 20260510120025 | 13 | 25 | 8.0 | 19.3 | 0.00 | 0.00 | 0.00 | 68 | 1018.4 |
| 20260510115057 | 13 | 29 | 4.8 | 19.3 | 0.00 | 0.00 | 0.00 | 68 | 1018.5 |
| 20260510114031 | 13 | 24 | 12.9 | 32.2 | 0.00 | 0.00 | 0.00 | 67 | 1018.5 |
| 20260510113024 | 13 | 22 | 6.4 | 27.4 | 0.00 | 0.00 | 0.00 | 65 | 1018.7 |
| 20260510112056 | 13 | 49 | 8.0 | 32.2 | 0.00 | 0.00 | 0.00 | 66 | 1018.8 |
| 20260510111031 | 13 | 28 | 9.7 | 32.2 | 0.00 | 0.00 | 0.00 | 66 | 1018.8 |
| 20260510110031 | 14 | 41 | 8.0 | 27.4 | 0.00 | 0.00 | 0.00 | 65 | 1019.0 |
| 20260510105024 | 14 | 29 | 6.4 | 19.3 | 0.00 | 0.00 | 0.00 | 64 | 1018.9 |
| 20260510104056 | 13 | 38 | 4.8 | 27.4 | 0.00 | 0.00 | 0.00 | 65 | 1019.0 |
| 20260510103031 | 13 | 26 | 4.8 | 19.3 | 0.00 | 0.00 | 0.00 | 65 | 1018.9 |
| 20260510102023 | 12 | 39 | 4.8 | 19.3 | 0.00 | 0.00 | 0.00 | 67 | 1019.0 |
| 20260510101056 | 12 | 35 | 6.4 | 27.4 | 0.00 | 0.00 | 0.00 | 69 | 1019.0 |
| 20260510100031 | 12 | 39 | 4.8 | 16.1 | 0.00 | 0.00 | 0.00 | 70 | 1019.0 |
| 20260510095025 | 12 | 27 | 6.4 | 16.1 | 0.00 | 0.00 | 0.00 | 71 | 1019.1 |
| 20260510094036 | 12 | 21 | 4.8 | 19.3 | 0.00 | 0.00 | 0.00 | 72 | 1019.2 |
| 20260510093051 | 12 | 30 | 6.4 | 27.4 | 0.00 | 0.00 | 0.00 | 72 | 1019.2 |
| 20260510092023 | 12 | 17 | 9.7 | 35.4 | 0.00 | 0.00 | 0.00 | 72 | 1019.3 |
| 20260510091037 | 11 | 22 | 4.8 | 19.3 | 0.00 | 0.00 | 0.00 | 72 | 1019.3 |
| 20260510090031 | 11 | 39 | 3.2 | 11.3 | 0.00 | 0.00 | 0.00 | 73 | 1019.5 |
| 20260510085025 | 11 | 31 | 6.4 | 24.1 | 0.00 | 0.00 | 0.00 | 74 | 1019.5 |
| 20260510084036 | 11 | 26 | 3.2 | 16.1 | 0.00 | 0.00 | 0.00 | 75 | 1019.7 |
| 20260510083031 | 11 | 25 | 6.4 | 27.4 | 0.00 | 0.00 | 0.00 | 75 | 1019.6 |
| 20260510082024 | 11 | 26 | 4.8 | 16.1 | 0.00 | 0.00 | 0.00 | 75 | 1019.7 |
| 20260510081036 | 11 | 29 | 3.2 | 24.1 | 0.00 | 0.00 | 0.00 | 76 | 1019.6 |
| 20260510080050 | 11 | 27 | 8.0 | 32.2 | 0.00 | 0.00 | 0.00 | 77 | 1019.6 |
| 20260510075023 | 11 | 25 | 6.4 | 19.3 | 0.00 | 0.00 | 0.00 | 77 | 1019.7 |
| 20260510074024 | 11 | 48 | 3.2 | 11.3 | 0.00 | 0.00 | 0.00 | 78 | 1019.7 |
| 20260510073035 | 10 | 23 | 8.0 | 24.1 | 0.00 | 0.00 | 0.00 | 78 | 1019.7 |
| 20260510072031 | 10 | 33 | 3.2 | 16.1 | 0.00 | 0.00 | 0.00 | 79 | 1019.6 |
| 20260510071023 | 10 | 47 | 1.6 | 16.1 | 0.00 | 0.00 | 0.00 | 79 | 1019.6 |
| 20260510070036 | 10 | 60 | 3.2 | 16.1 | 0.00 | 0.00 | 0.00 | 80 | 1019.5 |
| 20260510065031 | 10 | 23 | 3.2 | 19.3 | 0.00 | 0.00 | 0.00 | 80 | 1019.6 |
| 20260510064025 | 10 | 27 | 3.2 | 16.1 | 0.00 | 0.00 | 0.00 | 82 | 1019.6 |
| 20260510063035 | 10 | 44 | 4.8 | 16.1 | 0.00 | 0.00 | 0.00 | 82 | 1019.5 |
| 20260510062035 | 10 | 32 | 3.2 | 19.3 | 0.00 | 0.00 | 0.00 | 83 | 1019.4 |
| 20260510061032 | 10 | 28 | 6.4 | 16.1 | 0.00 | 0.00 | 0.00 | 83 | 1019.4 |
| 20260510060023 | 10 | 27 | 8.0 | 24.1 | 0.00 | 0.00 | 0.00 | 83 | 1019.3 |
| 20260510055035 | 10 | 31 | 4.8 | 16.1 | 0.00 | 0.00 | 0.00 | 84 | 1019.2 |
| 20260510054031 | 10 | 23 | 6.4 | 24.1 | 0.00 | 0.00 | 0.00 | 84 | 1019.3 |
| 20260510053032 | 10 | 29 | 4.8 | 16.1 | 0.00 | 0.00 | 0.00 | 84 | 1019.4 |
| 20260510052027 | 9 | 21 | 8.0 | 19.3 | 0.00 | 0.00 | 0.00 | 84 | 1019.3 |
| 20260510051023 | 9 | 16 | 4.8 | 19.3 | 0.00 | 0.00 | 0.00 | 84 | 1019.2 |
| 20260510050023 | 9 | 25 | 3.2 | 19.3 | 0.00 | 0.00 | 0.00 | 84 | 1019.3 |
| 20260510045035 | 9 | 30 | 3.2 | 19.3 | 0.00 | 0.00 | 0.00 | 85 | 1019.2 |
| 20260510044031 | 9 | 29 | 3.2 | 11.3 | 0.00 | 0.00 | 0.00 | 85 | 1019.3 |
| 20260510043034 | 9 | 29 | 1.6 | 8.0 | 0.00 | 0.00 | 0.00 | 86 | 1019.3 |
| 20260510042031 | 9 | 24 | 4.8 | 16.1 | 0.00 | 0.00 | 0.00 | 86 | 1019.4 |
| 20260510041024 | 9 | 31 | 6.4 | 19.3 | 0.00 | 0.00 | 0.00 | 86 | 1019.3 |
| 20260510040043 | 9 | 24 | 6.4 | 19.3 | 0.00 | 0.00 | 0.00 | 86 | 1019.5 |
| 20260510035035 | 9 | 27 | 3.2 | 16.1 | 0.00 | 0.00 | 0.00 | 86 | 1019.5 |
| 20260510034035 | 9 | 16 | 3.2 | 16.1 | 0.00 | 0.00 | 0.00 | 86 | 1019.5 |
| 20260510033051 | 9 | 26 | 1.6 | 11.3 | 0.00 | 0.00 | 0.00 | 86 | 1019.7 |
| 20260510032024 | 9 | 24 | 6.4 | 19.3 | 0.00 | 0.00 | 0.00 | 86 | 1019.8 |
| 20260510031035 | 9 | 23 | 6.4 | 24.1 | 0.00 | 0.00 | 0.00 | 86 | 1019.8 |
| 20260510030050 | 9 | 25 | 3.2 | 11.3 | 0.00 | 0.00 | 0.00 | 86 | 1019.6 |
| 20260510025045 | 10 | 11 | 4.8 | 16.1 | 0.00 | 0.00 | 0.00 | 86 | 1019.6 |
| 20260510024036 | 10 | 23 | 3.2 | 16.1 | 0.00 | 0.00 | 0.00 | 86 | 1019.7 |
| 20260510023051 | 10 | 27 | 6.4 | 16.1 | 0.00 | 0.00 | 0.00 | 85 | 1019.8 |
| 20260510022027 | 10 | 18 | 6.4 | 19.3 | 0.00 | 0.00 | 0.00 | 85 | 1019.7 |
| 20260510021023 | 10 | 29 | 8.0 | 19.3 | 0.00 | 0.00 | 0.00 | 85 | 1019.7 |
| 20260510020051 | 10 | 20 | 8.0 | 24.1 | 0.00 | 0.00 | 0.00 | 84 | 1019.5 |
| 20260510015031 | 10 | 18 | 6.4 | 19.3 | 0.00 | 0.00 | 0.00 | 83 | 1019.6 |
| 20260510014043 | 10 | 31 | 4.8 | 16.1 | 0.00 | 0.00 | 0.00 | 81 | 1019.7 |
| 20260510013035 | 10 | 26 | 6.4 | 19.3 | 0.00 | 0.00 | 0.00 | 79 | 1019.7 |
| 20260510012035 | 11 | 4 | 3.2 | 11.3 | 0.00 | 0.00 | 0.00 | 77 | 1019.7 |
| 20260510011030 | 11 | 24 | 4.8 | 24.1 | 0.00 | 0.00 | 0.00 | 74 | 1019.6 |
| 20260510010026 | 11 | 25 | 4.8 | 16.1 | 0.00 | 0.00 | 0.00 | 71 | 1019.6 |
| 20260510005035 | 11 | 17 | 3.2 | 19.3 | 0.00 | 0.00 | 0.00 | 69 | 1019.7 |
| 20260510004030 | 12 | 31 | 4.8 | 19.3 | 0.00 | 0.00 | 0.00 | 68 | 1019.5 |
| 20260510003104 | 12 | 36 | 4.8 | 16.1 | 0.00 | 0.00 | 0.00 | 68 | 1019.5 |
| 20260510002035 | 12 | 29 | 3.2 | 11.3 | 0.00 | 0.00 | 0.00 | 66 | 1019.6 |
| 20260510001031 | 12 | 26 | 3.2 | 19.3 | 0.00 | 0.00 | 0.00 | 64 | 1019.7 |
| 20260510000022 | 12 | 27 | 3.2 | 16.1 | 0.00 | 0.00 | 0.00 | 63 | 1019.6 |
| 20260509235055 | 12 | 34 | 3.2 | 11.3 | 0.00 | 0.00 | 0.00 | 63 | 1019.5 |
| 20260509234110 | 12 | 15 | 1.6 | 11.3 | 0.00 | 0.00 | 0.00 | 62 | 1019.5 |
| 20260509233045 | 12 | 16 | 3.2 | 11.3 | 0.00 | 0.00 | 0.00 | 61 | 1019.3 |
| 20260509232055 | 12 | 25 | 3.2 | 11.3 | 0.00 | 0.00 | 0.00 | 61 | 1019.5 |
| 20260509231031 | 12 | 25 | 3.2 | 11.3 | 0.00 | 0.00 | 0.00 | 61 | 1019.4 |
| 20260509230050 | 12 | 30 | 0.0 | 8.0 | 0.00 | 0.00 | 0.00 | 61 | 1019.5 |
| 20260509225024 | 12 | 22 | 1.6 | 8.0 | 0.00 | 0.00 | 0.00 | 61 | 1019.4 |
| 20260509224035 | 12 | 6 | 1.6 | 8.0 | 0.00 | 0.00 | 0.00 | 61 | 1019.5 |
| 20260509223032 | 12 | 22 | 0.0 | 3.2 | 0.00 | 0.00 | 0.00 | 60 | 1019.4 |
| 20260509222035 | 12 | 15 | 0.0 | 3.2 | 0.00 | 0.00 | 0.00 | 59 | 1019.3 |
| 20260509221023 | 12 | 20 | 0.0 | 11.3 | 0.00 | 0.00 | 0.00 | 58 | 1019.4 |
| 20260509220035 | 12 | 26 | 0.0 | 3.2 | 0.00 | 0.00 | 0.00 | 57 | 1019.3 |
| 20260509215030 | 13 | 18 | 0.0 | 3.2 | 0.00 | 0.00 | 0.00 | 55 | 1019.4 |
| 20260509214023 | 13 | 6 | 0.0 | 3.2 | 0.00 | 0.00 | 0.00 | 55 | 1019.6 |
| 20260509213034 | 13 | 17 | 0.0 | 3.2 | 0.00 | 0.00 | 0.00 | 53 | 1019.6 |
| 20260509212030 | 14 | 13 | 0.0 | 3.2 | 0.00 | 0.00 | 0.00 | 52 | 1019.2 |
| 20260509211035 | 14 | 32 | 1.6 | 11.3 | 0.00 | 0.00 | 0.00 | 51 | 1019.1 |
| 20260509210035 | 14 | 59 | 1.6 | 8.0 | 0.00 | 0.00 | 0.00 | 50 | 1019.0 |
| 20260509205030 | 15 | 54 | 1.6 | 11.3 | 0.00 | 0.00 | 0.00 | 49 | 1019.0 |
| 20260509204023 | 15 | 49 | 1.6 | 8.0 | 0.00 | 0.00 | 0.00 | 49 | 1019.0 |
| 20260509203034 | 15 | 37 | 1.6 | 8.0 | 0.00 | 0.00 | 0.00 | 49 | 1019.0 |
| 20260509202031 | 15 | 66 | 0.0 | 8.0 | 0.00 | 0.00 | 0.00 | 49 | 1018.9 |
| 20260509201022 | 15 | 64 | 0.0 | 8.0 | 0.00 | 0.00 | 0.00 | 48 | 1018.7 |
| 20260509200023 | 15 | 107 | 1.6 | 8.0 | 0.00 | 0.00 | 0.00 | 48 | 1018.6 |
| 20260509195034 | 16 | 83 | 0.0 | 3.2 | 0.00 | 0.00 | 0.00 | 48 | 1018.7 |
| 20260509194029 | 16 | 83 | 1.6 | 8.0 | 0.00 | 0.00 | 0.00 | 48 | 1018.6 |
| 20260509193022 | 16 | 75 | 1.6 | 8.0 | 0.00 | 0.00 | 0.00 | 48 | 1018.5 |
| 20260509192023 | 16 | 71 | 3.2 | 11.3 | 0.00 | 0.00 | 0.00 | 47 | 1018.3 |
| 20260509191034 | 17 | 103 | 1.6 | 8.0 | 0.00 | 0.00 | 0.00 | 47 | 1018.3 |
| 20260509190031 | 17 | 83 | 3.2 | 16.1 | 0.00 | 0.00 | 0.00 | 46 | 1018.3 |
| 20260509185023 | 17 | 93 | 1.6 | 8.0 | 0.00 | 0.00 | 0.00 | 45 | 1018.3 |
| 20260509184022 | 18 | 94 | 1.6 | 8.0 | 0.00 | 0.00 | 0.00 | 44 | 1018.0 |
| 20260509183034 | 18 | 100 | 1.6 | 8.0 | 0.00 | 0.00 | 0.00 | 43 | 1018.1 |
| 20260509182050 | 18 | 76 | 3.2 | 19.3 | 0.00 | 0.00 | 0.00 | 42 | 1018.1 |
| 20260509181023 | 18 | 88 | 3.2 | 11.3 | 0.00 | 0.00 | 0.00 | 43 | 1018.0 |
| 20260509180023 | 19 | 72 | 3.2 | 11.3 | 0.00 | 0.00 | 0.00 | 43 | 1018.0 |
| 20260509175054 | 20 | 72 | 3.2 | 16.1 | 0.00 | 0.00 | 0.00 | 42 | 1017.8 |
| 20260509174029 | 20 | 51 | 0.0 | 8.0 | 0.00 | 0.00 | 0.00 | 40 | 1017.7 |
| 20260509173022 | 20 | 97 | 3.2 | 8.0 | 0.00 | 0.00 | 0.00 | 39 | 1017.6 |
| 20260509172035 | 20 | 68 | 0.0 | 8.0 | 0.00 | 0.00 | 0.00 | 40 | 1017.6 |
| 20260509171030 | 21 | 61 | 1.6 | 24.1 | 0.00 | 0.00 | 0.00 | 40 | 1017.7 |
| 20260509170022 | 21 | 73 | 3.2 | 19.3 | 0.00 | 0.00 | 0.00 | 39 | 1017.8 |
| 20260509165034 | 21 | 96 | 1.6 | 11.3 | 0.00 | 0.00 | 0.00 | 38 | 1017.8 |
| 20260509164030 | 22 | 105 | 1.6 | 11.3 | 0.00 | 0.00 | 0.00 | 37 | 1017.8 |
| 20260509163022 | 22 | 93 | 3.2 | 16.1 | 0.00 | 0.00 | 0.00 | 37 | 1017.7 |
| 20260509162035 | 22 | 103 | 3.2 | 11.3 | 0.00 | 0.00 | 0.00 | 35 | 1017.6 |
| 20260509161030 | 22 | 74 | 3.2 | 19.3 | 0.00 | 0.00 | 0.00 | 35 | 1017.9 |
| 20260509160022 | 22 | 66 | 3.2 | 11.3 | 0.00 | 0.00 | 0.00 | 36 | 1017.8 |
| 20260509155034 | 22 | 80 | 3.2 | 16.1 | 0.00 | 0.00 | 0.00 | 35 | 1017.9 |
| 20260509154035 | 22 | 93 | 3.2 | 11.3 | 0.00 | 0.00 | 0.00 | 36 | 1018.0 |
| 20260509153030 | 22 | 96 | 1.6 | 11.3 | 0.00 | 0.00 | 0.00 | 35 | 1018.1 |
| 20260509152026 | 22 | 107 | 3.2 | 11.3 | 0.00 | 0.00 | 0.00 | 36 | 1018.1 |
| 20260509151023 | 23 | 45 | 3.2 | 11.3 | 0.00 | 0.00 | 0.00 | 36 | 1018.1 |
| 20260509150035 | 23 | 87 | 1.6 | 11.3 | 0.00 | 0.00 | 0.00 | 36 | 1018.0 |
| 20260509145050 | 23 | 77 | 3.2 | 16.1 | 0.00 | 0.00 | 0.00 | 36 | 1018.0 |
| 20260509144022 | 23 | 106 | 3.2 | 16.1 | 0.00 | 0.00 | 0.00 | 36 | 1018.0 |
| 20260509143034 | 23 | 57 | 3.2 | 19.3 | 0.00 | 0.00 | 0.00 | 37 | 1017.7 |
| 20260509142030 | 23 | 83 | 3.2 | 8.0 | 0.00 | 0.00 | 0.00 | 36 | 1017.8 |
| 20260509141022 | 22 | 100 | 3.2 | 11.3 | 0.00 | 0.00 | 0.00 | 35 | 1017.8 |